Time;durP1;ratioP1;P1;durP2;ratioP2;P2;SDS_P1;SDS_P2;PMS_P1;PMS_P2;Temp;Humidity;BMP_temperature;BMP_pressure;BME280_temperature;BME280_humidity;BME280_pressure;Samples;Min_cycle;Max_cycle;Signal;HPM_P1;HPM_P2
2023/05/05 00:00:14;;;;;;;2.78;2.58;;;;;;;12.32;90.57;96052.91;5054377;28;20021;-76
2023/05/05 00:02:40;;;;;;;2.67;2.47;;;;;;;12.20;91.46;96050.59;5054105;28;20033;-73
2023/05/05 00:05:06;;;;;;;4.60;2.70;;;;;;;12.16;92.09;96048.25;5051353;28;20033;-75
2023/05/05 00:07:31;;;;;;;2.90;2.20;;;;;;;12.15;90.84;96045.72;5052483;28;20029;-76
2023/05/05 00:09:56;;;;;;;2.40;2.20;;;;;;;12.15;91.24;96051.00;5053360;28;20519;-75
2023/05/05 00:12:22;;;;;;;2.97;2.40;;;;;;;12.18;90.77;96048.09;5054959;28;20021;-75
2023/05/05 00:14:47;;;;;;;3.08;2.78;;;;;;;12.18;90.61;96043.66;5052253;28;20024;-75
2023/05/05 00:17:13;;;;;;;3.40;3.00;;;;;;;12.16;90.72;96050.88;5054639;28;20037;-74
2023/05/05 00:19:39;;;;;;;2.90;2.58;;;;;;;12.22;89.90;96052.09;5053027;28;20033;-74
2023/05/05 00:22:05;;;;;;;2.65;2.45;;;;;;;12.26;88.31;96044.72;5052080;28;20033;-74
2023/05/05 00:24:30;;;;;;;3.22;2.72;;;;;;;12.25;88.57;96048.34;5053237;28;20032;-74
2023/05/05 00:26:56;;;;;;;3.63;3.10;;;;;;;12.23;88.09;96048.47;5052689;28;20025;-73
2023/05/05 00:29:21;;;;;;;3.50;2.97;;;;;;;12.12;89.42;96054.75;5048364;28;20052;-74
2023/05/05 00:31:49;;;;;;;3.65;3.10;;;;;;;12.01;91.84;96047.84;5055017;28;20021;-73
2023/05/05 00:34:15;;;;;;;6.03;3.33;;;;;;;11.98;92.34;96048.09;5055141;28;20032;-74
2023/05/05 00:36:41;;;;;;;5.47;3.10;;;;;;;11.98;91.60;96047.28;5054398;28;20029;-73
2023/05/05 00:39:06;;;;;;;4.95;3.17;;;;;;;11.92;92.04;96043.38;5054286;28;20057;-74
2023/05/05 00:41:33;;;;;;;4.22;2.60;;;;;;;11.88;92.15;96042.00;5054845;28;20505;-74
2023/05/05 00:43:58;;;;;;;3.47;3.13;;;;;;;11.91;91.46;96054.91;5054524;28;20521;-74
2023/05/05 00:46:27;;;;;;;3.92;3.63;;;;;;;11.89;92.84;96044.50;5051489;28;20048;-74
2023/05/05 00:48:53;;;;;;;3.28;2.95;;;;;;;11.82;93.37;96042.56;5050477;28;20025;-74
2023/05/05 00:51:20;;;;;;;3.10;2.90;;;;;;;11.77;93.81;96044.78;5051288;28;20116;-74
2023/05/05 00:53:47;;;;;;;3.33;3.05;;;;;;;11.70;93.09;96041.88;5046212;28;20083;-74
2023/05/05 00:56:14;;;;;;;3.10;2.90;;;;;;;11.71;92.80;96041.75;5051335;28;20026;-74
2023/05/05 00:58:41;;;;;;;6.50;3.30;;;;;;;11.69;94.43;96040.22;5053753;28;20439;-74
2023/05/05 01:01:06;;;;;;;4.40;3.22;;;;;;;11.69;93.96;96041.06;5066965;28;20029;-74
2023/05/05 01:03:32;;;;;;;3.03;2.70;;;;;;;11.60;95.08;96034.81;5052789;28;20159;-74
2023/05/05 01:06:01;;;;;;;3.00;2.70;;;;;;;11.54;94.77;96032.75;5050005;28;20128;-73
2023/05/05 01:08:49;;;;;;;2.70;2.53;;;;;;;11.57;93.41;96037.75;5051439;28;20028;-74
2023/05/05 01:11:41;;;;;;;3.10;2.80;;;;;;;11.61;92.51;96036.47;5052454;28;20086;-73
2023/05/05 01:14:15;;;;;;;3.28;2.97;;;;;;;11.63;93.49;96046.91;5053097;28;20020;-73
2023/05/05 01:16:57;;;;;;;2.97;2.78;;;;;;;11.63;93.23;96038.16;5046713;28;20028;-73
2023/05/05 01:19:55;;;;;;;5.75;3.10;;;;;;;11.58;93.75;96036.78;5065811;28;20493;-74
2023/05/05 01:22:27;;;;;;;3.22;2.70;;;;;;;11.48;93.71;96043.84;5044071;28;20493;-74
2023/05/05 01:25:08;;;;;;;3.47;2.95;;;;;;;11.46;94.98;96038.72;5048453;28;20033;-74
2023/05/05 01:27:37;;;;;;;3.17;2.97;;;;;;;11.46;93.77;96035.22;5048829;28;20060;-74
2023/05/05 01:30:21;;;;;;;5.05;2.80;;;;;;;11.49;94.87;96047.31;5053097;28;20370;-74
2023/05/05 01:32:54;;;;;;;5.30;2.92;;;;;;;11.45;94.58;96044.97;5044665;28;20020;-74
2023/05/05 01:35:34;;;;;;;3.00;2.80;;;;;;;11.40;95.11;96055.09;5049984;28;20028;-74
2023/05/05 01:38:06;;;;;;;3.58;2.53;;;;;;;11.35;94.97;96040.66;5049570;28;20112;-74
2023/05/05 01:40:37;;;;;;;2.60;2.40;;;;;;;11.31;95.86;96040.94;5050658;28;20036;-74
2023/05/05 01:43:06;;;;;;;2.78;2.67;;;;;;;11.25;95.50;96046.75;5050850;28;20012;-73
2023/05/05 01:45:36;;;;;;;4.22;2.97;;;;;;;11.24;95.80;96039.81;5051477;28;20397;-74
2023/05/05 01:48:05;;;;;;;2.83;2.63;;;;;;;11.21;97.43;96042.72;5050303;28;20028;-74
2023/05/05 01:50:31;;;;;;;2.53;2.30;;;;;;;11.12;97.85;96041.72;5051317;28;20044;-74
2023/05/05 01:52:57;;;;;;;2.83;2.45;;;;;;;11.16;96.16;96043.16;5051209;28;20474;-74
2023/05/05 01:55:25;;;;;;;5.75;2.42;;;;;;;11.19;95.05;96042.03;5053194;28;20287;-74
2023/05/05 01:57:51;;;;;;;3.92;2.90;;;;;;;11.10;96.60;96035.78;5059579;28;20021;-73
2023/05/05 02:00:18;;;;;;;9.88;2.63;;;;;;;11.05;96.76;96035.34;5053206;28;20016;-73
2023/05/05 02:02:46;;;;;;;2.63;2.42;;;;;;;10.97;96.51;96030.75;5051836;28;20853;-74
2023/05/05 02:05:13;;;;;;;2.60;2.40;;;;;;;11.01;95.98;96031.34;5048534;28;20493;-74
2023/05/05 02:07:38;;;;;;;2.40;2.20;;;;;;;11.03;95.51;96027.56;5052302;28;20083;-73
2023/05/05 02:10:06;;;;;;;2.72;2.53;;;;;;;11.06;95.73;96030.94;5069732;28;20075;-73
2023/05/05 02:12:34;;;;;;;2.90;2.70;;;;;;;11.10;95.24;96030.50;5052536;28;20028;-74
2023/05/05 02:15:01;;;;;;;2.80;2.60;;;;;;;11.10;95.94;96027.06;5045098;28;20086;-73
2023/05/05 02:17:28;;;;;;;2.78;2.63;;;;;;;11.02;96.68;96018.00;5048770;28;20029;-74
2023/05/05 02:19:57;;;;;;;4.57;2.78;;;;;;;10.98;97.72;96027.16;5052520;28;20029;-73
2023/05/05 02:22:23;;;;;;;2.70;2.50;;;;;;;10.96;97.44;96028.28;5049942;28;20013;-74
2023/05/05 02:24:48;;;;;;;3.25;2.95;;;;;;;10.92;97.65;96022.44;5051815;28;20029;-73
2023/05/05 02:27:17;;;;;;;3.03;2.50;;;;;;;10.91;97.88;96025.19;5046331;28;20099;-73
2023/05/05 02:29:49;;;;;;;3.53;3.30;;;;;;;10.90;97.38;96021.75;5046942;28;20017;-73
2023/05/05 02:32:22;;;;;;;4.20;3.35;;;;;;;10.89;98.22;96023.53;5047708;28;20022;-73
2023/05/05 02:34:50;;;;;;;5.60;2.70;;;;;;;10.83;98.57;96021.44;5054512;28;20024;-73
2023/05/05 02:37:20;;;;;;;2.97;2.70;;;;;;;10.83;98.97;96025.88;5053377;28;20025;-74
2023/05/05 02:40:01;;;;;;;3.45;2.20;;;;;;;10.80;99.46;96027.00;5052595;28;20466;-74
2023/05/05 02:42:31;;;;;;;3.20;2.90;;;;;;;10.78;100.00;96017.53;5056983;28;20040;-74
2023/05/05 02:44:58;;;;;;;3.92;2.70;;;;;;;10.72;99.29;96021.53;5055231;28;20029;-74
2023/05/05 02:47:37;;;;;;;4.65;2.85;;;;;;;10.71;100.00;96025.16;5056150;28;20032;-73
2023/05/05 02:50:04;;;;;;;2.95;2.75;;;;;;;10.71;100.00;96022.50;5056539;28;20115;-74
2023/05/05 02:52:31;;;;;;;3.83;3.53;;;;;;;10.72;99.06;96021.53;5052646;28;20017;-73
2023/05/05 02:54:57;;;;;;;3.70;3.38;;;;;;;10.72;99.53;96021.53;5055602;28;20511;-73
2023/05/05 02:57:36;;;;;;;3.92;3.50;;;;;;;10.71;98.56;96019.88;5049437;28;20061;-73
2023/05/05 03:00:09;;;;;;;5.25;4.78;;;;;;;10.72;99.12;96024.19;5046711;28;20028;-74
2023/05/05 03:03:12;;;;;;;6.07;5.35;;;;;;;10.62;99.13;96018.91;5051380;28;20029;-73
2023/05/05 03:05:46;;;;;;;7.25;4.43;;;;;;;10.63;98.66;96019.72;5053214;28;20029;-73
2023/05/05 03:08:25;;;;;;;3.65;3.35;;;;;;;10.63;98.54;96014.47;5046151;28;20088;-73
2023/05/05 03:11:05;;;;;;;9.05;8.15;;;;;;;10.61;99.36;96014.63;5057366;28;20040;-73
2023/05/05 03:13:33;;;;;;;10.88;8.80;;;;;;;10.56;100.00;96011.53;5053569;28;20092;-73
2023/05/05 03:16:05;;;;;;;5.05;4.60;;;;;;;10.50;100.00;96009.44;5052016;28;20020;-73
2023/05/05 03:18:33;;;;;;;4.72;3.97;;;;;;;10.44;100.00;96010.81;5050198;28;20040;-74
2023/05/05 03:21:06;;;;;;;5.38;3.10;;;;;;;10.42;100.00;96012.75;5052973;28;20377;-73
2023/05/05 03:23:32;;;;;;;3.97;2.97;;;;;;;10.41;100.00;96011.06;5050283;28;20021;-73
2023/05/05 03:25:58;;;;;;;3.00;2.80;;;;;;;10.37;100.00;96005.19;5056920;28;20370;-73
2023/05/05 03:28:23;;;;;;;3.95;3.40;;;;;;;10.36;100.00;96008.81;5055100;28;20035;-73
2023/05/05 03:30:49;;;;;;;5.40;3.10;;;;;;;10.34;100.00;96008.09;5047681;28;20035;-73
2023/05/05 03:33:14;;;;;;;2.95;2.75;;;;;;;10.30;100.00;96012.81;5055085;28;20017;-73
2023/05/05 03:35:40;;;;;;;2.97;2.83;;;;;;;10.30;100.00;96011.97;5050043;28;20078;-73
2023/05/05 03:38:05;;;;;;;3.35;3.15;;;;;;;10.26;100.00;96003.50;5055654;28;20021;-73
2023/05/05 03:40:31;;;;;;;3.28;2.95;;;;;;;10.26;100.00;96006.13;5050584;28;20040;-73
2023/05/05 03:42:56;;;;;;;3.40;3.13;;;;;;;10.26;100.00;96005.31;5051646;28;20028;-73
2023/05/05 03:45:21;;;;;;;3.90;3.50;;;;;;;10.28;100.00;96003.38;5052838;28;20013;-73
2023/05/05 03:47:47;;;;;;;5.50;3.40;;;;;;;10.25;100.00;95996.56;5065227;28;20032;-73
2023/05/05 03:50:12;;;;;;;3.88;3.58;;;;;;;10.27;100.00;96002.53;5055110;28;20023;-73
2023/05/05 03:52:38;;;;;;;3.35;3.05;;;;;;;10.22;100.00;95996.84;5054017;28;20058;-74
2023/05/05 03:55:03;;;;;;;10.27;9.23;;;;;;;10.19;100.00;96002.38;5050068;28;20021;-73
2023/05/05 03:57:29;;;;;;;5.65;5.15;;;;;;;10.18;100.00;96000.69;5054657;28;20386;-74
2023/05/05 03:59:55;;;;;;;4.25;3.75;;;;;;;10.17;100.00;96001.66;5051828;28;20028;-73
2023/05/05 04:02:20;;;;;;;4.10;3.80;;;;;;;10.08;100.00;96005.09;5055055;28;20485;-73
2023/05/05 04:04:46;;;;;;;5.57;3.67;;;;;;;10.01;100.00;96000.34;5052556;28;20048;-73
2023/05/05 04:07:11;;;;;;;4.95;3.47;;;;;;;10.10;100.00;96001.34;5053139;28;20037;-73
2023/05/05 04:09:43;;;;;;;3.92;3.50;;;;;;;10.09;100.00;95997.06;5053901;28;20090;-74
2023/05/05 04:12:11;;;;;;;3.97;3.58;;;;;;;10.11;100.00;96002.19;5055217;28;20020;-73
2023/05/05 04:14:37;;;;;;;4.22;3.88;;;;;;;10.11;100.00;96004.84;5054783;28;20021;-74
2023/05/05 04:17:02;;;;;;;5.40;4.95;;;;;;;10.17;100.00;96002.53;5053261;28;20074;-74
2023/05/05 04:19:31;;;;;;;5.43;4.82;;;;;;;10.17;100.00;96004.31;5050011;28;20432;-74
2023/05/05 04:21:56;;;;;;;5.65;4.60;;;;;;;10.16;100.00;95995.56;5053431;28;20021;-74
2023/05/05 04:24:23;;;;;;;7.90;5.03;;;;;;;10.18;100.00;95996.28;5053197;28;20013;-74
2023/05/05 04:26:49;;;;;;;5.22;4.82;;;;;;;10.15;100.00;95996.53;5055761;28;20021;-73
2023/05/05 04:29:15;;;;;;;9.32;5.43;;;;;;;10.15;100.00;95988.63;5052764;28;20032;-74
2023/05/05 04:31:40;;;;;;;4.60;4.03;;;;;;;10.21;100.00;95994.34;5051171;28;20389;-72
2023/05/05 04:34:06;;;;;;;5.80;3.40;;;;;;;10.26;100.00;95995.59;5053187;28;20502;-74
2023/05/05 04:36:32;;;;;;;6.10;3.88;;;;;;;10.31;100.00;95996.06;5052954;28;20101;-74
2023/05/05 04:38:57;;;;;;;4.10;3.80;;;;;;;10.38;100.00;95996.34;5047881;28;20123;-74
2023/05/05 04:41:23;;;;;;;8.35;4.13;;;;;;;10.45;100.00;95999.31;5054758;28;20173;-74
2023/05/05 04:43:48;;;;;;;6.43;3.50;;;;;;;10.45;100.00;95999.31;5055508;28;20017;-73
2023/05/05 04:46:14;;;;;;;4.57;3.47;;;;;;;10.45;100.00;96000.16;5055211;28;20024;-74
2023/05/05 04:48:39;;;;;;;8.25;4.10;;;;;;;10.51;100.00;96001.44;5054464;28;20389;-74
2023/05/05 04:51:05;;;;;;;9.20;3.63;;;;;;;10.54;99.98;96011.69;5053791;28;20481;-74
2023/05/05 04:53:31;;;;;;;8.85;6.57;;;;;;;10.57;100.00;96011.41;5053424;28;20111;-74
2023/05/05 04:55:58;;;;;;;5.97;5.15;;;;;;;10.63;100.00;96003.94;5047452;28;20068;-74
2023/05/05 04:58:24;;;;;;;5.32;4.82;;;;;;;10.66;100.00;96017.69;5055537;28;20577;-74
2023/05/05 05:00:49;;;;;;;4.07;3.78;;;;;;;10.71;100.00;96017.25;5055337;28;20075;-74
2023/05/05 05:03:15;;;;;;;4.25;2.90;;;;;;;10.75;100.00;96008.94;5052973;28;20029;-73
2023/05/05 05:05:40;;;;;;;4.40;3.58;;;;;;;10.79;100.00;96012.16;5053935;28;20100;-73
2023/05/05 05:08:05;;;;;;;6.10;3.75;;;;;;;10.81;100.00;96018.13;5055107;28;20029;-73
2023/05/05 05:10:31;;;;;;;6.03;3.42;;;;;;;10.83;100.00;96010.91;5054651;28;20025;-75
2023/05/05 05:12:56;;;;;;;3.70;3.35;;;;;;;10.93;100.00;96015.34;5052717;28;20104;-73
2023/05/05 05:15:22;;;;;;;4.55;3.00;;;;;;;10.95;100.00;96018.72;5055288;28;20017;-74
2023/05/05 05:17:47;;;;;;;8.95;3.58;;;;;;;10.96;100.00;96015.09;5055331;28;20088;-74
2023/05/05 05:20:12;;;;;;;3.58;3.28;;;;;;;11.01;100.00;96011.06;5053839;28;20378;-74
2023/05/05 05:22:38;;;;;;;5.55;3.50;;;;;;;11.06;100.00;96005.41;5048531;28;20040;-74
2023/05/05 05:25:03;;;;;;;8.32;4.47;;;;;;;11.10;100.00;96006.78;5052592;28;20032;-74
2023/05/05 05:27:29;;;;;;;9.95;3.90;;;;;;;11.10;100.00;96012.06;5054063;28;20098;-75
2023/05/05 05:29:54;;;;;;;12.13;4.03;;;;;;;11.15;100.00;96014.28;5053872;28;20540;-75
2023/05/05 05:32:20;;;;;;;4.25;3.83;;;;;;;11.23;100.00;96021.50;5054153;28;20492;-75
2023/05/05 05:34:45;;;;;;;11.73;4.28;;;;;;;11.34;99.56;96017.91;5053616;28;20139;-74
2023/05/05 05:37:10;;;;;;;5.40;3.83;;;;;;;11.53;98.61;96028.44;5052285;28;20132;-73
2023/05/05 05:39:36;;;;;;;6.82;4.05;;;;;;;11.72;97.08;96027.59;5053463;28;20041;-77
2023/05/05 05:42:02;;;;;;;4.72;3.20;;;;;;;11.88;97.33;96028.81;5053930;28;20566;-75
2023/05/05 05:44:28;;;;;;;6.68;3.65;;;;;;;12.02;96.53;96028.38;5067722;28;20032;-75
2023/05/05 05:46:53;;;;;;;5.47;3.65;;;;;;;12.28;93.96;96030.44;5052740;28;20029;-73
2023/05/05 05:49:18;;;;;;;3.50;3.20;;;;;;;12.31;93.22;96027.50;5053472;28;20021;-74
2023/05/05 05:51:44;;;;;;;4.68;3.40;;;;;;;12.50;90.24;96030.19;5053041;28;20544;-73
2023/05/05 05:54:09;;;;;;;5.45;3.67;;;;;;;12.56;90.23;96030.44;5053689;28;20067;-75
2023/05/05 05:56:35;;;;;;;4.70;3.40;;;;;;;12.66;89.45;96029.56;5055058;28;20405;-74
2023/05/05 05:59:01;;;;;;;3.72;3.38;;;;;;;12.74;88.26;96025.19;5055702;28;20029;-75
2023/05/05 06:01:26;;;;;;;7.22;3.85;;;;;;;12.88;88.60;96031.78;5050517;28;20029;-72
2023/05/05 06:03:52;;;;;;;5.25;3.30;;;;;;;13.03;89.39;96029.47;5053515;28;20025;-76
2023/05/05 06:06:17;;;;;;;9.25;3.90;;;;;;;13.22;89.09;96026.88;5043589;28;20025;-74
2023/05/05 06:08:43;;;;;;;8.85;5.38;;;;;;;13.42;87.86;96025.75;5054184;28;20071;-76
2023/05/05 06:11:08;;;;;;;3.13;2.80;;;;;;;13.60;85.39;96024.94;5058860;28;20045;-82
2023/05/05 06:13:34;;;;;;;5.55;3.47;;;;;;;13.75;84.00;96026.03;5057425;28;20072;-75
2023/05/05 06:15:59;;;;;;;4.70;3.03;;;;;;;13.88;82.18;96022.16;5059900;28;20025;-76
2023/05/05 06:18:25;;;;;;;2.47;2.22;;;;;;;13.98;80.39;96030.00;5061177;28;20029;-73
2023/05/05 06:20:51;;;;;;;2.50;2.30;;;;;;;14.14;77.95;96021.34;5055943;28;20036;-72
2023/05/05 06:23:16;;;;;;;5.57;2.63;;;;;;;14.44;79.07;96021.81;5060256;28;20032;-73
2023/05/05 06:25:42;;;;;;;3.90;2.75;;;;;;;14.78;77.03;96020.19;5066991;28;20572;-72
2023/05/05 06:28:07;;;;;;;2.80;2.60;;;;;;;15.13;76.95;96024.41;5060805;28;20104;-73
2023/05/05 06:30:33;;;;;;;4.35;2.80;;;;;;;15.40;76.83;96019.00;5046090;28;20090;-73
2023/05/05 06:32:58;;;;;;;2.40;2.20;;;;;;;15.55;75.10;96024.47;5062048;28;20422;-73
2023/05/05 06:35:24;;;;;;;2.60;1.98;;;;;;;15.73;71.52;96014.53;5050815;28;20021;-73
2023/05/05 06:37:49;;;;;;;6.00;2.13;;;;;;;15.84;71.18;96017.88;5055065;28;20508;-72
2023/05/05 06:40:15;;;;;;;2.25;2.10;;;;;;;15.83;72.11;96010.91;5051861;28;20045;-72
2023/05/05 06:42:40;;;;;;;4.18;2.22;;;;;;;15.80;74.05;96004.09;5053770;28;20025;-73
2023/05/05 06:45:06;;;;;;;3.22;2.20;;;;;;;15.83;74.32;95998.44;5053056;28;20084;-72
2023/05/05 06:47:32;;;;;;;4.38;2.30;;;;;;;15.88;72.73;95990.00;5053215;28;20508;-72
2023/05/05 06:49:57;;;;;;;2.83;2.17;;;;;;;15.99;71.29;96000.28;5052359;28;20033;-73
2023/05/05 06:52:23;;;;;;;4.18;2.10;;;;;;;16.22;71.25;96004.06;5051662;28;20021;-73
2023/05/05 06:54:48;;;;;;;2.25;1.88;;;;;;;16.45;70.59;96012.97;5053290;28;20025;-73
2023/05/05 06:57:13;;;;;;;2.58;2.13;;;;;;;16.56;68.04;96005.59;5052479;28;20870;-73
2023/05/05 06:59:39;;;;;;;2.45;2.22;;;;;;;16.67;68.16;96004.41;5063079;28;20024;-72
2023/05/05 07:02:05;;;;;;;4.60;1.90;;;;;;;17.00;68.44;96005.09;5066968;28;20127;-73
2023/05/05 07:04:30;;;;;;;2.20;2.10;;;;;;;17.36;68.55;96002.91;5053968;28;20031;-73
2023/05/05 07:06:57;;;;;;;6.30;2.20;;;;;;;18.07;64.97;96005.34;5059469;28;20100;-72
2023/05/05 07:09:22;;;;;;;2.65;1.75;;;;;;;18.51;61.38;96000.22;5058092;28;20539;-73
2023/05/05 07:11:48;;;;;;;4.47;2.05;;;;;;;18.89;56.58;95997.44;5053233;28;20013;-73
2023/05/05 07:14:13;;;;;;;3.13;2.10;;;;;;;19.50;53.14;96003.44;5052382;28;20025;-73
2023/05/05 07:16:38;;;;;;;2.05;1.73;;;;;;;20.01;52.27;96008.66;5052945;28;20039;-74
2023/05/05 07:19:05;;;;;;;6.97;2.17;;;;;;;20.34;50.70;96009.94;5055608;28;20029;-74
2023/05/05 07:21:32;;;;;;;3.47;1.90;;;;;;;20.78;48.51;96012.41;5054141;28;20052;-73
2023/05/05 07:23:57;;;;;;;1.85;1.75;;;;;;;21.15;49.85;96003.13;5056056;28;20409;-74
2023/05/05 07:26:23;;;;;;;4.50;2.05;;;;;;;21.47;50.02;96006.06;5056398;28;20024;-75
2023/05/05 07:28:50;;;;;;;3.45;1.70;;;;;;;21.32;50.63;96005.41;5056712;28;20020;-75
2023/05/05 07:31:18;;;;;;;1.70;1.60;;;;;;;21.47;50.28;96002.59;5056158;28;20538;-75
2023/05/05 07:33:44;;;;;;;1.90;1.80;;;;;;;21.82;50.90;96004.31;5056998;28;20119;-74
2023/05/05 07:36:10;;;;;;;4.70;1.95;;;;;;;21.67;49.11;96002.63;5055135;28;20464;-75
2023/05/05 07:38:35;;;;;;;1.92;1.80;;;;;;;20.99;51.12;96008.84;5056525;28;20090;-76
2023/05/05 07:41:01;;;;;;;4.15;1.90;;;;;;;21.01;49.61;96004.09;5063345;28;20037;-73
2023/05/05 07:43:26;;;;;;;3.47;1.55;;;;;;;20.87;48.38;95997.88;5058512;28;20115;-73
2023/05/05 07:45:52;;;;;;;2.63;1.60;;;;;;;21.08;49.96;95999.59;5053647;28;20115;-75
2023/05/05 07:48:17;;;;;;;1.70;1.60;;;;;;;21.29;50.03;96000.47;5053876;28;20028;-76
2023/05/05 07:50:43;;;;;;;2.63;1.90;;;;;;;21.37;47.74;95996.78;5057473;28;20021;-74
2023/05/05 07:53:08;;;;;;;2.33;1.50;;;;;;;21.22;47.86;95999.63;5057159;28;20083;-72
2023/05/05 07:55:33;;;;;;;1.63;1.52;;;;;;;21.55;45.15;95990.84;5056539;28;20029;-71
2023/05/05 07:57:59;;;;;;;2.75;1.83;;;;;;;21.30;47.77;95994.09;5054247;28;20020;-72
2023/05/05 08:00:24;;;;;;;2.08;1.60;;;;;;;20.68;48.71;95986.84;5053188;28;20032;-73
2023/05/05 08:02:50;;;;;;;2.42;1.98;;;;;;;20.56;49.57;95985.78;5050063;28;20438;-73
2023/05/05 08:05:15;;;;;;;2.72;1.63;;;;;;;21.45;46.00;95978.69;5055571;28;20058;-73
2023/05/05 08:07:41;;;;;;;5.65;1.75;;;;;;;21.12;47.80;95983.97;5056174;28;20028;-73
2023/05/05 08:10:10;;;;;;;3.75;1.90;;;;;;;21.56;45.60;95987.97;5055701;28;20108;-72
2023/05/05 08:12:36;;;;;;;1.77;1.60;;;;;;;21.89;44.16;95978.31;5056562;28;20021;-72
2023/05/05 08:15:01;;;;;;;1.60;1.50;;;;;;;22.08;41.86;95976.66;5057004;28;20553;-74
2023/05/05 08:17:27;;;;;;;7.28;2.30;;;;;;;22.14;41.98;95985.72;5049528;28;20100;-74
2023/05/05 08:19:52;;;;;;;4.40;1.90;;;;;;;22.41;40.43;95980.31;5055502;28;20440;-75
2023/05/05 08:22:18;;;;;;;2.78;1.55;;;;;;;22.32;40.83;95974.34;5055713;28;20025;-75
2023/05/05 08:24:43;;;;;;;3.90;1.60;;;;;;;22.50;40.05;95972.91;5056016;28;20032;-75
2023/05/05 08:27:08;;;;;;;1.60;1.50;;;;;;;22.43;41.38;95975.56;5075251;28;20025;-75
2023/05/05 08:29:34;;;;;;;2.22;1.73;;;;;;;22.59;41.30;95968.97;5064702;28;20036;-74
2023/05/05 08:31:59;;;;;;;2.78;1.55;;;;;;;23.02;38.77;95970.22;5065995;28;20048;-76
2023/05/05 08:34:24;;;;;;;2.08;1.70;;;;;;;23.05;39.13;95972.47;5057928;28;20031;-78
2023/05/05 08:36:50;;;;;;;3.38;1.65;;;;;;;23.30;38.09;95972.59;5055597;28;20032;-76
2023/05/05 08:39:15;;;;;;;2.50;1.65;;;;;;;23.34;39.07;95970.31;5053737;28;20052;-73
2023/05/05 08:41:41;;;;;;;1.52;1.50;;;;;;;23.11;38.46;95962.75;5053864;28;20031;-73
2023/05/05 08:44:07;;;;;;;1.60;1.50;;;;;;;22.89;39.07;95957.69;5049638;28;20025;-72
2023/05/05 08:46:35;;;;;;;2.97;1.52;;;;;;;22.79;38.73;95958.16;5055338;28;20017;-73
2023/05/05 08:49:02;;;;;;;1.60;1.50;;;;;;;22.77;40.11;95951.34;5049741;28;20060;-72
2023/05/05 08:51:32;;;;;;;2.30;1.70;;;;;;;23.17;38.51;95949.28;5055126;28;20164;-72
2023/05/05 08:54:02;;;;;;;1.63;1.50;;;;;;;22.59;40.27;95942.13;5058264;28;20028;-74
2023/05/05 08:56:33;;;;;;;2.00;1.80;;;;;;;22.53;40.40;95934.91;5058526;28;20032;-74
2023/05/05 08:59:00;;;;;;;1.33;1.30;;;;;;;22.92;39.71;95935.78;5055923;28;20480;-75
2023/05/05 09:01:26;;;;;;;2.60;1.95;;;;;;;22.20;42.69;95939.31;5054511;28;20023;-74
2023/05/05 09:03:52;;;;;;;2.40;1.70;;;;;;;22.01;43.54;95932.97;5042439;28;20112;-73
2023/05/05 09:06:21;;;;;;;3.92;1.73;;;;;;;22.21;42.53;95937.47;5055450;28;20032;-74
2023/05/05 09:08:46;;;;;;;1.60;1.50;;;;;;;21.74;42.96;95928.44;5042848;28;20071;-74
2023/05/05 09:11:11;;;;;;;5.20;1.60;;;;;;;21.99;44.73;95935.84;5054982;28;20636;-74
2023/05/05 09:13:37;;;;;;;3.40;1.90;;;;;;;22.59;43.18;95931.41;5055866;28;20100;-73
2023/05/05 09:16:02;;;;;;;2.30;1.60;;;;;;;23.01;41.36;95925.63;5053792;28;20083;-73
2023/05/05 09:18:28;;;;;;;1.92;1.48;;;;;;;23.95;38.52;95926.84;5054354;28;20013;-74
2023/05/05 09:20:54;;;;;;;1.92;1.58;;;;;;;23.56;40.07;95933.16;5053932;28;20042;-74
2023/05/05 09:23:20;;;;;;;3.15;1.60;;;;;;;24.00;38.20;95925.16;5052570;28;20028;-73
2023/05/05 09:26:08;;;;;;;1.80;1.70;;;;;;;24.71;37.27;95924.00;5053656;28;20468;-73
2023/05/05 09:28:34;;;;;;;2.58;1.75;;;;;;;24.42;39.49;95919.16;5052875;28;20455;-71
2023/05/05 09:31:14;;;;;;;3.60;1.60;;;;;;;24.34;37.81;95915.94;5058102;28;20079;-72
2023/05/05 09:33:40;;;;;;;1.60;1.50;;;;;;;25.01;36.08;95909.75;5046650;28;20408;-72
2023/05/05 09:36:06;;;;;;;4.38;1.70;;;;;;;24.41;39.58;95911.28;5061805;28;20413;-71
2023/05/05 09:38:34;;;;;;;2.25;1.98;;;;;;;24.92;38.64;95911.13;5062712;28;20036;-73
2023/05/05 09:40:59;;;;;;;35.10;3.05;;;;;;;25.33;38.50;95912.22;5054038;28;20033;-73
2023/05/05 09:43:24;;;;;;;2.25;2.03;;;;;;;25.19;37.76;95906.16;5059115;28;20029;-71
2023/05/05 09:45:50;;;;;;;2.65;2.22;;;;;;;24.56;39.60;95911.75;5054547;28;20024;-72
2023/05/05 09:48:25;;;;;;;4.90;2.90;;;;;;;24.53;41.09;95906.81;5054497;28;20130;-71
2023/05/05 09:50:51;;;;;;;3.33;2.03;;;;;;;24.09;41.88;95906.88;5054084;28;20021;-74
2023/05/05 09:53:17;;;;;;;5.00;2.40;;;;;;;23.58;41.63;95903.38;5054696;28;20024;-73
2023/05/05 09:55:59;;;;;;;3.05;2.08;;;;;;;23.53;40.93;95905.88;5053912;28;20107;-73
2023/05/05 09:58:27;;;;;;;2.00;1.90;;;;;;;24.21;39.82;95904.28;5053879;28;20031;-73
2023/05/05 10:00:54;;;;;;;6.93;1.90;;;;;;;24.70;38.74;95892.75;5052660;28;20057;-73
2023/05/05 10:03:20;;;;;;;2.95;1.83;;;;;;;24.81;37.11;95892.00;5053918;28;20041;-74
2023/05/05 10:05:49;;;;;;;1.90;1.80;;;;;;;25.17;37.08;95889.41;5053853;28;20489;-74
2023/05/05 10:08:15;;;;;;;3.58;1.88;;;;;;;24.56;38.19;95884.03;5048931;28;20043;-73
2023/05/05 10:10:55;;;;;;;3.55;2.00;;;;;;;24.44;38.51;95879.38;5052345;28;20480;-73
2023/05/05 10:13:21;;;;;;;2.13;1.90;;;;;;;25.68;35.66;95865.63;5054794;28;20107;-74
2023/05/05 10:15:50;;;;;;;2.10;1.70;;;;;;;25.72;36.40;95857.91;5069566;28;20059;-75
2023/05/05 10:18:26;;;;;;;1.77;1.63;;;;;;;26.19;34.18;95854.38;5054688;28;20068;-71
2023/05/05 10:20:59;;;;;;;1.90;1.80;;;;;;;26.25;32.75;95852.59;5048183;28;20063;-73
2023/05/05 10:23:46;;;;;;;3.20;1.50;;;;;;;26.67;31.90;95852.38;5054380;28;20037;-73
2023/05/05 10:26:13;;;;;;;1.65;1.55;;;;;;;27.06;32.97;95857.16;5054370;28;20107;-70
2023/05/05 10:28:44;;;;;;;2.78;1.35;;;;;;;27.28;31.33;95840.22;5056011;28;20025;-71
2023/05/05 10:31:28;;;;;;;1.65;1.55;;;;;;;27.14;31.84;95845.97;5052746;28;20029;-70
2023/05/05 10:34:04;;;;;;;1.42;1.35;;;;;;;26.78;31.20;95841.78;5053728;28;20040;-70
2023/05/05 10:36:30;;;;;;;5.88;1.58;;;;;;;27.19;31.40;95839.84;5054309;28;20117;-71
2023/05/05 10:38:57;;;;;;;1.88;1.60;;;;;;;26.69;31.92;95836.75;5052338;28;20080;-72
2023/05/05 10:41:24;;;;;;;1.50;1.40;;;;;;;27.28;33.11;95837.53;5061099;28;20025;-71
2023/05/05 10:43:51;;;;;;;1.63;1.17;;;;;;;28.16;30.63;95841.56;5054335;28;20044;-74
2023/05/05 10:46:17;;;;;;;2.58;1.20;;;;;;;27.97;29.18;95831.03;5053675;28;20381;-73
2023/05/05 10:48:56;;;;;;;1.48;1.38;;;;;;;27.82;31.17;95838.94;5054014;28;20037;-71
2023/05/05 10:51:27;;;;;;;6.03;1.25;;;;;;;28.41;28.87;95832.16;5055115;28;20037;-71
2023/05/05 10:54:09;;;;;;;1.50;1.40;;;;;;;28.35;29.42;95842.09;5053107;28;20025;-71
2023/05/05 10:56:35;;;;;;;2.15;1.45;;;;;;;28.10;29.38;95829.88;5055076;28;20041;-71
2023/05/05 10:59:00;;;;;;;2.92;1.38;;;;;;;28.10;29.75;95837.16;5056495;28;20051;-71
2023/05/05 11:01:33;;;;;;;1.20;1.20;;;;;;;27.56;31.27;95831.25;5056335;28;20025;-71
2023/05/05 11:04:18;;;;;;;2.78;1.50;;;;;;;27.79;30.55;95829.41;5057450;28;20032;-71
2023/05/05 11:07:08;;;;;;;1.67;1.33;;;;;;;27.97;29.16;95824.81;5057063;28;20036;-71
2023/05/05 11:09:41;;;;;;;2.75;1.30;;;;;;;28.01;29.59;95832.19;5049075;28;20030;-71
2023/05/05 11:12:07;;;;;;;2.17;1.23;;;;;;;27.98;28.02;95824.56;5055679;28;20025;-70
2023/05/05 11:14:33;;;;;;;1.20;1.10;;;;;;;27.92;28.28;95822.84;5052080;28;20159;-70
2023/05/05 11:16:58;;;;;;;2.25;1.67;;;;;;;27.70;29.61;95812.78;5054856;28;20025;-71
2023/05/05 11:19:42;;;;;;;1.20;1.13;;;;;;;28.10;28.60;95820.91;5051212;28;20045;-71
2023/05/05 11:22:08;;;;;;;24.13;2.72;;;;;;;27.82;28.46;95817.28;5044752;28;20029;-71
2023/05/05 11:24:35;;;;;;;1.48;1.38;;;;;;;27.98;28.71;95819.16;5056733;28;20039;-73
2023/05/05 11:27:02;;;;;;;1.73;1.30;;;;;;;28.43;30.13;95808.38;5057095;28;20029;-74
2023/05/05 11:30:19;;;;;;;5.65;1.20;;;;;;;28.43;27.87;95805.66;5048538;28;20031;-73
2023/05/05 11:33:30;;;;;;;1.30;1.20;;;;;;;28.72;29.33;95802.72;5059713;28;20500;-73
2023/05/05 11:35:58;;;;;;;4.05;1.50;;;;;;;28.79;28.10;95805.22;5059235;28;20433;-73